sensor_id;sensor_type;location;lat;lon;timestamp;temperature;humidity
38458;DHT22;24239;48.058;10.486;2024-01-06T00:02:34;4.50;99.90
38458;DHT22;24239;48.058;10.486;2024-01-06T00:05:20;4.50;99.90
38458;DHT22;24239;48.058;10.486;2024-01-06T00:08:06;4.50;99.90
38458;DHT22;24239;48.058;10.486;2024-01-06T00:10:52;4.30;99.90
38458;DHT22;24239;48.058;10.486;2024-01-06T00:13:42;4.50;99.90
38458;DHT22;24239;48.058;10.486;2024-01-06T00:16:28;4.40;99.90
38458;DHT22;24239;48.058;10.486;2024-01-06T00:19:17;4.40;99.90
38458;DHT22;24239;48.058;10.486;2024-01-06T00:22:03;4.40;99.90
38458;DHT22;24239;48.058;10.486;2024-01-06T00:24:49;4.30;99.90
38458;DHT22;24239;48.058;10.486;2024-01-06T00:27:35;4.40;99.90
38458;DHT22;24239;48.058;10.486;2024-01-06T00:30:20;4.30;99.90
38458;DHT22;24239;48.058;10.486;2024-01-06T00:33:06;4.40;99.90
38458;DHT22;24239;48.058;10.486;2024-01-06T00:35:55;4.30;99.90
38458;DHT22;24239;48.058;10.486;2024-01-06T00:38:41;4.20;99.90
38458;DHT22;24239;48.058;10.486;2024-01-06T00:41:27;4.30;99.90
38458;DHT22;24239;48.058;10.486;2024-01-06T00:44:13;4.40;99.90
38458;DHT22;24239;48.058;10.486;2024-01-06T00:47:02;4.20;99.90
38458;DHT22;24239;48.058;10.486;2024-01-06T00:49:48;4.20;99.90
38458;DHT22;24239;48.058;10.486;2024-01-06T00:52:39;4.20;99.90
38458;DHT22;24239;48.058;10.486;2024-01-06T00:55:25;4.10;99.90
38458;DHT22;24239;48.058;10.486;2024-01-06T00:58:14;4.20;99.90
38458;DHT22;24239;48.058;10.486;2024-01-06T01:01:00;4.20;99.90
38458;DHT22;24239;48.058;10.486;2024-01-06T01:03:46;4.10;99.90
38458;DHT22;24239;48.058;10.486;2024-01-06T01:06:32;4.10;99.90
38458;DHT22;24239;48.058;10.486;2024-01-06T01:09:18;4.10;99.90
38458;DHT22;24239;48.058;10.486;2024-01-06T01:12:04;4.10;99.90
38458;DHT22;24239;48.058;10.486;2024-01-06T01:14:50;4.10;99.90
38458;DHT22;24239;48.058;10.486;2024-01-06T01:17:36;4.10;99.90
38458;DHT22;24239;48.058;10.486;2024-01-06T01:20:22;4.20;99.90
38458;DHT22;24239;48.058;10.486;2024-01-06T01:23:08;4.10;99.90
38458;DHT22;24239;48.058;10.486;2024-01-06T01:25:54;4.20;99.90
38458;DHT22;24239;48.058;10.486;2024-01-06T01:28:42;4.00;99.90
38458;DHT22;24239;48.058;10.486;2024-01-06T01:31:28;4.10;99.90
38458;DHT22;24239;48.058;10.486;2024-01-06T01:34:14;4.00;99.90
38458;DHT22;24239;48.058;10.486;2024-01-06T01:37:00;3.90;99.90
38458;DHT22;24239;48.058;10.486;2024-01-06T01:39:47;4.00;99.90
38458;DHT22;24239;48.058;10.486;2024-01-06T01:42:33;3.90;99.90
38458;DHT22;24239;48.058;10.486;2024-01-06T01:45:19;3.80;99.90
38458;DHT22;24239;48.058;10.486;2024-01-06T01:48:08;3.80;99.90
38458;DHT22;24239;48.058;10.486;2024-01-06T01:50:54;3.90;99.90
38458;DHT22;24239;48.058;10.486;2024-01-06T01:53:40;3.90;99.90
38458;DHT22;24239;48.058;10.486;2024-01-06T01:56:26;3.80;99.90
38458;DHT22;24239;48.058;10.486;2024-01-06T01:59:12;3.80;99.90
38458;DHT22;24239;48.058;10.486;2024-01-06T02:01:58;3.80;99.90
38458;DHT22;24239;48.058;10.486;2024-01-06T02:04:45;3.80;99.90
38458;DHT22;24239;48.058;10.486;2024-01-06T02:07:31;3.80;99.90
38458;DHT22;24239;48.058;10.486;2024-01-06T02:10:17;3.70;99.90
38458;DHT22;24239;48.058;10.486;2024-01-06T02:13:09;3.70;99.90
38458;DHT22;24239;48.058;10.486;2024-01-06T02:15:55;3.80;99.90
38458;DHT22;24239;48.058;10.486;2024-01-06T02:18:41;3.80;99.90
38458;DHT22;24239;48.058;10.486;2024-01-06T02:21:28;3.70;99.90
38458;DHT22;24239;48.058;10.486;2024-01-06T02:24:14;3.60;99.90
38458;DHT22;24239;48.058;10.486;2024-01-06T02:27:00;3.70;99.90
38458;DHT22;24239;48.058;10.486;2024-01-06T02:29:48;3.70;99.90
38458;DHT22;24239;48.058;10.486;2024-01-06T02:32:34;3.60;99.90
38458;DHT22;24239;48.058;10.486;2024-01-06T02:35:20;3.60;99.90
38458;DHT22;24239;48.058;10.486;2024-01-06T02:38:06;3.70;99.90
38458;DHT22;24239;48.058;10.486;2024-01-06T02:40:55;3.70;99.90
38458;DHT22;24239;48.058;10.486;2024-01-06T02:43:40;3.60;99.90
38458;DHT22;24239;48.058;10.486;2024-01-06T02:46:26;3.60;99.90
38458;DHT22;24239;48.058;10.486;2024-01-06T02:49:21;3.60;99.90
38458;DHT22;24239;48.058;10.486;2024-01-06T02:52:27;3.50;99.90
38458;DHT22;24239;48.058;10.486;2024-01-06T02:55:13;3.50;99.90
38458;DHT22;24239;48.058;10.486;2024-01-06T02:57:59;3.50;99.90
38458;DHT22;24239;48.058;10.486;2024-01-06T03:00:45;3.40;99.90
38458;DHT22;24239;48.058;10.486;2024-01-06T03:03:34;3.50;99.90
38458;DHT22;24239;48.058;10.486;2024-01-06T03:06:20;3.50;99.90
38458;DHT22;24239;48.058;10.486;2024-01-06T03:09:06;3.40;99.90
38458;DHT22;24239;48.058;10.486;2024-01-06T03:11:54;3.40;99.90
38458;DHT22;24239;48.058;10.486;2024-01-06T03:14:40;3.50;99.90
38458;DHT22;24239;48.058;10.486;2024-01-06T03:17:26;3.40;99.90
38458;DHT22;24239;48.058;10.486;2024-01-06T03:20:14;3.30;99.90
38458;DHT22;24239;48.058;10.486;2024-01-06T03:23:00;3.30;99.90
38458;DHT22;24239;48.058;10.486;2024-01-06T03:25:46;3.40;99.90
38458;DHT22;24239;48.058;10.486;2024-01-06T03:28:32;3.40;99.90
38458;DHT22;24239;48.058;10.486;2024-01-06T03:31:20;3.50;99.90
38458;DHT22;24239;48.058;10.486;2024-01-06T03:34:07;3.50;99.90
38458;DHT22;24239;48.058;10.486;2024-01-06T03:36:54;3.50;99.90
38458;DHT22;24239;48.058;10.486;2024-01-06T03:39:42;3.40;99.90
38458;DHT22;24239;48.058;10.486;2024-01-06T03:42:31;3.40;99.90
38458;DHT22;24239;48.058;10.486;2024-01-06T03:45:17;3.40;99.90
38458;DHT22;24239;48.058;10.486;2024-01-06T03:48:03;3.50;99.90
38458;DHT22;24239;48.058;10.486;2024-01-06T03:50:48;3.30;99.90
38458;DHT22;24239;48.058;10.486;2024-01-06T03:53:34;3.30;99.90
38458;DHT22;24239;48.058;10.486;2024-01-06T03:56:20;3.40;99.90
38458;DHT22;24239;48.058;10.486;2024-01-06T03:59:06;3.30;99.90
38458;DHT22;24239;48.058;10.486;2024-01-06T04:01:53;3.20;99.90
38458;DHT22;24239;48.058;10.486;2024-01-06T04:04:39;3.00;99.90
38458;DHT22;24239;48.058;10.486;2024-01-06T04:10:55;3.00;99.90
38458;DHT22;24239;48.058;10.486;2024-01-06T04:13:47;2.90;99.90
38458;DHT22;24239;48.058;10.486;2024-01-06T04:16:33;2.80;99.90
38458;DHT22;24239;48.058;10.486;2024-01-06T04:22:59;2.90;99.90
38458;DHT22;24239;48.058;10.486;2024-01-06T04:26:10;2.90;99.90
38458;DHT22;24239;48.058;10.486;2024-01-06T04:28:56;3.00;99.90
38458;DHT22;24239;48.058;10.486;2024-01-06T04:31:54;2.90;99.90
38458;DHT22;24239;48.058;10.486;2024-01-06T04:34:42;2.80;99.90
38458;DHT22;24239;48.058;10.486;2024-01-06T04:37:33;2.70;99.90
38458;DHT22;24239;48.058;10.486;2024-01-06T04:40:19;2.60;99.90
38458;DHT22;24239;48.058;10.486;2024-01-06T04:43:05;2.70;99.90
38458;DHT22;24239;48.058;10.486;2024-01-06T04:45:51;2.60;99.90
38458;DHT22;24239;48.058;10.486;2024-01-06T04:48:38;2.60;99.90
38458;DHT22;24239;48.058;10.486;2024-01-06T04:51:24;2.70;99.90
38458;DHT22;24239;48.058;10.486;2024-01-06T04:54:10;2.60;99.90
38458;DHT22;24239;48.058;10.486;2024-01-06T05:00:06;2.50;99.90
38458;DHT22;24239;48.058;10.486;2024-01-06T05:02:52;2.60;99.90
38458;DHT22;24239;48.058;10.486;2024-01-06T05:05:38;2.50;99.90
38458;DHT22;24239;48.058;10.486;2024-01-06T05:08:24;2.70;99.90
38458;DHT22;24239;48.058;10.486;2024-01-06T05:11:10;2.60;99.90
38458;DHT22;24239;48.058;10.486;2024-01-06T05:13:57;2.50;99.90
38458;DHT22;24239;48.058;10.486;2024-01-06T05:16:43;2.60;99.90
38458;DHT22;24239;48.058;10.486;2024-01-06T05:19:29;2.50;99.90
38458;DHT22;24239;48.058;10.486;2024-01-06T05:22:15;2.60;99.90
38458;DHT22;24239;48.058;10.486;2024-01-06T05:25:01;2.70;99.90
38458;DHT22;24239;48.058;10.486;2024-01-06T05:27:56;2.50;99.90
38458;DHT22;24239;48.058;10.486;2024-01-06T05:30:45;2.50;99.90
38458;DHT22;24239;48.058;10.486;2024-01-06T05:33:31;2.60;99.90
38458;DHT22;24239;48.058;10.486;2024-01-06T05:36:28;2.60;99.90
38458;DHT22;24239;48.058;10.486;2024-01-06T05:39:21;2.50;99.90
38458;DHT22;24239;48.058;10.486;2024-01-06T05:42:09;2.60;99.90
38458;DHT22;24239;48.058;10.486;2024-01-06T05:44:55;2.60;99.90
38458;DHT22;24239;48.058;10.486;2024-01-06T05:47:41;2.60;99.90
38458;DHT22;24239;48.058;10.486;2024-01-06T05:50:27;2.60;99.90
38458;DHT22;24239;48.058;10.486;2024-01-06T05:53:22;2.60;99.90
38458;DHT22;24239;48.058;10.486;2024-01-06T05:56:08;2.70;99.90
38458;DHT22;24239;48.058;10.486;2024-01-06T05:58:55;2.70;99.90
38458;DHT22;24239;48.058;10.486;2024-01-06T06:01:41;2.60;99.90
38458;DHT22;24239;48.058;10.486;2024-01-06T06:04:27;2.60;99.90
38458;DHT22;24239;48.058;10.486;2024-01-06T06:07:13;2.50;99.90
38458;DHT22;24239;48.058;10.486;2024-01-06T06:09:59;2.50;99.90
38458;DHT22;24239;48.058;10.486;2024-01-06T06:12:45;2.40;99.90
38458;DHT22;24239;48.058;10.486;2024-01-06T06:15:31;2.60;99.90
38458;DHT22;24239;48.058;10.486;2024-01-06T06:18:17;2.50;99.90
38458;DHT22;24239;48.058;10.486;2024-01-06T06:21:03;2.40;99.90
38458;DHT22;24239;48.058;10.486;2024-01-06T06:23:52;2.50;99.90
38458;DHT22;24239;48.058;10.486;2024-01-06T06:26:38;2.30;99.90
38458;DHT22;24239;48.058;10.486;2024-01-06T06:29:24;2.30;99.90
38458;DHT22;24239;48.058;10.486;2024-01-06T06:32:14;2.40;99.90
38458;DHT22;24239;48.058;10.486;2024-01-06T06:35:00;2.30;99.90
38458;DHT22;24239;48.058;10.486;2024-01-06T06:37:47;2.40;99.90
38458;DHT22;24239;48.058;10.486;2024-01-06T06:40:33;2.40;99.90
38458;DHT22;24239;48.058;10.486;2024-01-06T06:43:21;2.30;99.90
38458;DHT22;24239;48.058;10.486;2024-01-06T06:46:07;2.40;99.90
38458;DHT22;24239;48.058;10.486;2024-01-06T06:48:56;2.30;99.90
38458;DHT22;24239;48.058;10.486;2024-01-06T06:51:49;2.30;99.90
38458;DHT22;24239;48.058;10.486;2024-01-06T06:54:38;2.50;99.90
38458;DHT22;24239;48.058;10.486;2024-01-06T06:57:27;2.30;99.90
38458;DHT22;24239;48.058;10.486;2024-01-06T07:00:21;2.40;99.90
38458;DHT22;24239;48.058;10.486;2024-01-06T07:03:10;2.30;99.90
38458;DHT22;24239;48.058;10.486;2024-01-06T07:06:01;2.30;99.90
38458;DHT22;24239;48.058;10.486;2024-01-06T07:08:57;2.20;99.90
38458;DHT22;24239;48.058;10.486;2024-01-06T07:11:53;2.20;99.90
38458;DHT22;24239;48.058;10.486;2024-01-06T07:14:42;2.30;99.90
38458;DHT22;24239;48.058;10.486;2024-01-06T07:17:30;2.20;99.90
38458;DHT22;24239;48.058;10.486;2024-01-06T07:20:17;2.30;99.90
38458;DHT22;24239;48.058;10.486;2024-01-06T07:23:04;2.30;99.90
38458;DHT22;24239;48.058;10.486;2024-01-06T07:25:50;2.30;99.90
38458;DHT22;24239;48.058;10.486;2024-01-06T07:28:35;2.40;99.90
38458;DHT22;24239;48.058;10.486;2024-01-06T07:31:27;2.30;99.90
38458;DHT22;24239;48.058;10.486;2024-01-06T07:34:13;2.30;99.90
38458;DHT22;24239;48.058;10.486;2024-01-06T07:36:59;2.20;99.90
38458;DHT22;24239;48.058;10.486;2024-01-06T07:39:45;2.30;99.90
38458;DHT22;24239;48.058;10.486;2024-01-06T07:42:31;2.30;99.90
38458;DHT22;24239;48.058;10.486;2024-01-06T07:45:17;2.30;99.90
38458;DHT22;24239;48.058;10.486;2024-01-06T07:48:03;2.30;99.90
38458;DHT22;24239;48.058;10.486;2024-01-06T07:50:49;2.30;99.90
38458;DHT22;24239;48.058;10.486;2024-01-06T07:53:35;2.30;99.90
38458;DHT22;24239;48.058;10.486;2024-01-06T07:56:21;2.40;99.90
38458;DHT22;24239;48.058;10.486;2024-01-06T07:59:07;2.40;99.90
38458;DHT22;24239;48.058;10.486;2024-01-06T08:01:53;2.50;99.90
38458;DHT22;24239;48.058;10.486;2024-01-06T08:04:39;2.40;99.90
38458;DHT22;24239;48.058;10.486;2024-01-06T08:07:25;2.30;99.90
38458;DHT22;24239;48.058;10.486;2024-01-06T08:10:14;2.20;99.90
38458;DHT22;24239;48.058;10.486;2024-01-06T08:12:59;2.40;99.90
38458;DHT22;24239;48.058;10.486;2024-01-06T08:15:45;2.40;99.90
38458;DHT22;24239;48.058;10.486;2024-01-06T08:18:33;2.40;99.90
38458;DHT22;24239;48.058;10.486;2024-01-06T08:21:19;2.40;99.90
38458;DHT22;24239;48.058;10.486;2024-01-06T08:24:05;2.30;99.90
38458;DHT22;24239;48.058;10.486;2024-01-06T08:26:54;2.40;99.90
38458;DHT22;24239;48.058;10.486;2024-01-06T08:29:40;2.50;99.90
38458;DHT22;24239;48.058;10.486;2024-01-06T08:32:26;2.40;99.90
38458;DHT22;24239;48.058;10.486;2024-01-06T08:35:12;2.60;99.90
38458;DHT22;24239;48.058;10.486;2024-01-06T08:37:59;2.40;99.90
38458;DHT22;24239;48.058;10.486;2024-01-06T08:40:45;2.40;99.90
38458;DHT22;24239;48.058;10.486;2024-01-06T08:43:33;2.40;99.90
38458;DHT22;24239;48.058;10.486;2024-01-06T08:46:19;2.40;99.90
38458;DHT22;24239;48.058;10.486;2024-01-06T08:49:05;2.40;99.90
38458;DHT22;24239;48.058;10.486;2024-01-06T08:51:53;2.30;99.90
38458;DHT22;24239;48.058;10.486;2024-01-06T08:54:40;2.50;99.90
38458;DHT22;24239;48.058;10.486;2024-01-06T08:57:26;2.70;99.90
38458;DHT22;24239;48.058;10.486;2024-01-06T09:00:12;2.60;99.90
38458;DHT22;24239;48.058;10.486;2024-01-06T09:02:58;2.60;99.90
38458;DHT22;24239;48.058;10.486;2024-01-06T09:05:44;2.60;99.90
38458;DHT22;24239;48.058;10.486;2024-01-06T09:08:29;2.60;99.90
38458;DHT22;24239;48.058;10.486;2024-01-06T09:11:18;2.80;99.90
38458;DHT22;24239;48.058;10.486;2024-01-06T09:14:04;2.70;99.90
38458;DHT22;24239;48.058;10.486;2024-01-06T09:16:50;2.80;99.90
38458;DHT22;24239;48.058;10.486;2024-01-06T09:19:35;2.70;99.90
38458;DHT22;24239;48.058;10.486;2024-01-06T09:22:21;2.80;99.90
38458;DHT22;24239;48.058;10.486;2024-01-06T09:25:09;2.90;99.90
38458;DHT22;24239;48.058;10.486;2024-01-06T09:27:55;2.80;99.90
38458;DHT22;24239;48.058;10.486;2024-01-06T09:30:42;2.90;99.90
38458;DHT22;24239;48.058;10.486;2024-01-06T09:33:28;2.80;99.90
38458;DHT22;24239;48.058;10.486;2024-01-06T09:36:14;2.60;99.90
38458;DHT22;24239;48.058;10.486;2024-01-06T09:39:03;2.80;99.90
38458;DHT22;24239;48.058;10.486;2024-01-06T09:41:49;2.80;99.90
38458;DHT22;24239;48.058;10.486;2024-01-06T09:44:36;2.80;99.90
38458;DHT22;24239;48.058;10.486;2024-01-06T09:47:22;2.80;99.90
38458;DHT22;24239;48.058;10.486;2024-01-06T09:50:08;2.60;99.90
38458;DHT22;24239;48.058;10.486;2024-01-06T09:52:55;2.80;99.90
38458;DHT22;24239;48.058;10.486;2024-01-06T09:55:49;3.00;99.90
38458;DHT22;24239;48.058;10.486;2024-01-06T09:58:40;3.00;99.90
38458;DHT22;24239;48.058;10.486;2024-01-06T10:01:40;2.80;99.90
38458;DHT22;24239;48.058;10.486;2024-01-06T10:04:34;2.90;99.90
38458;DHT22;24239;48.058;10.486;2024-01-06T10:07:20;3.00;99.90
38458;DHT22;24239;48.058;10.486;2024-01-06T10:10:07;3.00;99.90
38458;DHT22;24239;48.058;10.486;2024-01-06T10:12:53;3.00;99.90
38458;DHT22;24239;48.058;10.486;2024-01-06T10:15:42;2.90;99.90
38458;DHT22;24239;48.058;10.486;2024-01-06T10:18:29;2.90;99.90
38458;DHT22;24239;48.058;10.486;2024-01-06T10:21:15;2.90;99.90
38458;DHT22;24239;48.058;10.486;2024-01-06T10:24:08;2.90;99.90
38458;DHT22;24239;48.058;10.486;2024-01-06T10:26:55;3.10;99.90
38458;DHT22;24239;48.058;10.486;2024-01-06T10:29:43;3.10;99.90
38458;DHT22;24239;48.058;10.486;2024-01-06T10:32:33;3.10;99.90
38458;DHT22;24239;48.058;10.486;2024-01-06T10:35:23;3.00;99.90
38458;DHT22;24239;48.058;10.486;2024-01-06T10:38:10;3.20;99.90
38458;DHT22;24239;48.058;10.486;2024-01-06T10:40:57;3.30;99.90
38458;DHT22;24239;48.058;10.486;2024-01-06T10:43:43;3.30;99.90
38458;DHT22;24239;48.058;10.486;2024-01-06T10:46:30;3.20;99.90
38458;DHT22;24239;48.058;10.486;2024-01-06T10:49:17;3.20;99.90
38458;DHT22;24239;48.058;10.486;2024-01-06T10:52:04;3.30;99.90
38458;DHT22;24239;48.058;10.486;2024-01-06T10:54:52;3.20;99.90
38458;DHT22;24239;48.058;10.486;2024-01-06T10:57:43;3.30;99.90
38458;DHT22;24239;48.058;10.486;2024-01-06T11:00:31;3.40;99.90
38458;DHT22;24239;48.058;10.486;2024-01-06T11:03:17;3.30;99.90
38458;DHT22;24239;48.058;10.486;2024-01-06T11:06:06;3.30;99.90
38458;DHT22;24239;48.058;10.486;2024-01-06T11:09:08;3.40;99.90
38458;DHT22;24239;48.058;10.486;2024-01-06T11:11:55;3.40;99.90
38458;DHT22;24239;48.058;10.486;2024-01-06T11:14:41;3.50;99.90
38458;DHT22;24239;48.058;10.486;2024-01-06T11:20:32;3.30;99.90
38458;DHT22;24239;48.058;10.486;2024-01-06T11:23:18;3.40;99.90
38458;DHT22;24239;48.058;10.486;2024-01-06T11:26:08;3.50;99.90
38458;DHT22;24239;48.058;10.486;2024-01-06T11:28:56;3.50;99.90
38458;DHT22;24239;48.058;10.486;2024-01-06T11:31:53;3.50;99.90
38458;DHT22;24239;48.058;10.486;2024-01-06T11:34:50;3.40;99.90
38458;DHT22;24239;48.058;10.486;2024-01-06T11:40:34;3.60;99.90
38458;DHT22;24239;48.058;10.486;2024-01-06T11:43:20;3.40;99.90
38458;DHT22;24239;48.058;10.486;2024-01-06T11:46:12;3.40;99.90
38458;DHT22;24239;48.058;10.486;2024-01-06T11:49:00;3.40;99.90
38458;DHT22;24239;48.058;10.486;2024-01-06T11:51:46;3.30;99.90
38458;DHT22;24239;48.058;10.486;2024-01-06T11:54:35;3.10;99.90
38458;DHT22;24239;48.058;10.486;2024-01-06T11:57:30;3.20;99.90
38458;DHT22;24239;48.058;10.486;2024-01-06T12:03:25;3.20;99.90
38458;DHT22;24239;48.058;10.486;2024-01-06T12:06:19;3.20;99.90
38458;DHT22;24239;48.058;10.486;2024-01-06T12:09:11;3.20;99.90
38458;DHT22;24239;48.058;10.486;2024-01-06T12:12:04;3.20;99.90
38458;DHT22;24239;48.058;10.486;2024-01-06T12:15:06;3.30;99.90
38458;DHT22;24239;48.058;10.486;2024-01-06T12:17:55;3.40;99.90
38458;DHT22;24239;48.058;10.486;2024-01-06T12:20:44;3.30;99.90
38458;DHT22;24239;48.058;10.486;2024-01-06T12:23:39;3.10;99.90
38458;DHT22;24239;48.058;10.486;2024-01-06T12:26:25;3.00;99.90
38458;DHT22;24239;48.058;10.486;2024-01-06T12:29:37;3.10;99.90
38458;DHT22;24239;48.058;10.486;2024-01-06T12:32:26;3.00;99.90
38458;DHT22;24239;48.058;10.486;2024-01-06T12:35:12;3.00;99.90
38458;DHT22;24239;48.058;10.486;2024-01-06T12:38:08;3.00;99.90
38458;DHT22;24239;48.058;10.486;2024-01-06T12:40:56;3.00;99.90
38458;DHT22;24239;48.058;10.486;2024-01-06T12:43:51;3.20;99.90
38458;DHT22;24239;48.058;10.486;2024-01-06T12:46:40;3.00;99.90
38458;DHT22;24239;48.058;10.486;2024-01-06T12:49:26;3.10;99.90
38458;DHT22;24239;48.058;10.486;2024-01-06T12:52:12;3.10;99.90
38458;DHT22;24239;48.058;10.486;2024-01-06T12:54:58;3.20;99.90
38458;DHT22;24239;48.058;10.486;2024-01-06T12:57:44;3.10;99.90
38458;DHT22;24239;48.058;10.486;2024-01-06T13:00:32;3.20;99.90
38458;DHT22;24239;48.058;10.486;2024-01-06T13:03:18;3.20;99.90
38458;DHT22;24239;48.058;10.486;2024-01-06T13:06:09;3.20;99.90
38458;DHT22;24239;48.058;10.486;2024-01-06T13:08:58;3.20;99.90
38458;DHT22;24239;48.058;10.486;2024-01-06T13:11:44;3.10;99.90
38458;DHT22;24239;48.058;10.486;2024-01-06T13:14:40;3.20;99.90
38458;DHT22;24239;48.058;10.486;2024-01-06T13:17:28;3.10;99.90
38458;DHT22;24239;48.058;10.486;2024-01-06T13:20:18;3.20;99.90
38458;DHT22;24239;48.058;10.486;2024-01-06T13:23:04;3.20;99.90
38458;DHT22;24239;48.058;10.486;2024-01-06T13:25:52;3.20;99.90
38458;DHT22;24239;48.058;10.486;2024-01-06T13:28:38;3.00;99.90
38458;DHT22;24239;48.058;10.486;2024-01-06T13:31:25;3.10;99.90
38458;DHT22;24239;48.058;10.486;2024-01-06T13:34:10;3.20;99.90
38458;DHT22;24239;48.058;10.486;2024-01-06T13:36:57;3.30;99.90
38458;DHT22;24239;48.058;10.486;2024-01-06T13:39:45;3.40;99.90
38458;DHT22;24239;48.058;10.486;2024-01-06T13:42:34;3.40;99.90
38458;DHT22;24239;48.058;10.486;2024-01-06T13:45:20;3.50;99.90
38458;DHT22;24239;48.058;10.486;2024-01-06T13:48:06;3.50;99.90
38458;DHT22;24239;48.058;10.486;2024-01-06T13:50:54;3.50;99.90
38458;DHT22;24239;48.058;10.486;2024-01-06T13:53:43;3.50;99.90
38458;DHT22;24239;48.058;10.486;2024-01-06T13:56:29;3.50;99.90
38458;DHT22;24239;48.058;10.486;2024-01-06T13:59:15;3.50;99.90
38458;DHT22;24239;48.058;10.486;2024-01-06T14:02:07;3.40;99.90
38458;DHT22;24239;48.058;10.486;2024-01-06T14:04:56;3.40;99.90
38458;DHT22;24239;48.058;10.486;2024-01-06T14:07:45;3.40;99.90
38458;DHT22;24239;48.058;10.486;2024-01-06T14:10:34;3.40;99.90
38458;DHT22;24239;48.058;10.486;2024-01-06T14:13:20;3.40;99.90
38458;DHT22;24239;48.058;10.486;2024-01-06T14:16:06;3.30;99.90
38458;DHT22;24239;48.058;10.486;2024-01-06T14:18:53;3.40;99.90
38458;DHT22;24239;48.058;10.486;2024-01-06T14:21:39;3.50;99.90
38458;DHT22;24239;48.058;10.486;2024-01-06T14:24:25;3.40;99.90
38458;DHT22;24239;48.058;10.486;2024-01-06T14:27:12;3.40;99.90
38458;DHT22;24239;48.058;10.486;2024-01-06T14:29:58;3.30;99.90
38458;DHT22;24239;48.058;10.486;2024-01-06T14:33:02;3.30;99.90
38458;DHT22;24239;48.058;10.486;2024-01-06T14:36:01;3.40;99.90
38458;DHT22;24239;48.058;10.486;2024-01-06T14:39:13;3.40;99.90
38458;DHT22;24239;48.058;10.486;2024-01-06T14:42:10;3.20;99.90
38458;DHT22;24239;48.058;10.486;2024-01-06T14:45:18;3.20;99.90
38458;DHT22;24239;48.058;10.486;2024-01-06T14:58:33;3.10;99.90
38458;DHT22;24239;48.058;10.486;2024-01-06T15:01:24;3.10;99.90
38458;DHT22;24239;48.058;10.486;2024-01-06T15:04:30;3.20;99.90
38458;DHT22;24239;48.058;10.486;2024-01-06T15:07:19;3.20;99.90
38458;DHT22;24239;48.058;10.486;2024-01-06T15:10:05;3.10;99.90
38458;DHT22;24239;48.058;10.486;2024-01-06T15:12:51;3.10;99.90
38458;DHT22;24239;48.058;10.486;2024-01-06T15:15:37;3.00;99.90
38458;DHT22;24239;48.058;10.486;2024-01-06T15:21:34;2.70;99.90
38458;DHT22;24239;48.058;10.486;2024-01-06T15:24:23;2.70;99.90
38458;DHT22;24239;48.058;10.486;2024-01-06T15:27:09;2.60;99.90
38458;DHT22;24239;48.058;10.486;2024-01-06T15:29:55;2.50;99.90
38458;DHT22;24239;48.058;10.486;2024-01-06T15:35:50;2.50;99.90
38458;DHT22;24239;48.058;10.486;2024-01-06T15:38:39;2.40;99.90
38458;DHT22;24239;48.058;10.486;2024-01-06T15:41:27;2.40;99.90
38458;DHT22;24239;48.058;10.486;2024-01-06T15:44:14;2.40;99.90
38458;DHT22;24239;48.058;10.486;2024-01-06T15:47:03;2.50;99.90
38458;DHT22;24239;48.058;10.486;2024-01-06T15:49:49;2.50;99.90
38458;DHT22;24239;48.058;10.486;2024-01-06T15:59:24;2.50;99.90
38458;DHT22;24239;48.058;10.486;2024-01-06T16:02:11;2.30;99.90
38458;DHT22;24239;48.058;10.486;2024-01-06T16:04:58;2.40;99.90
38458;DHT22;24239;48.058;10.486;2024-01-06T16:07:44;2.40;99.90
38458;DHT22;24239;48.058;10.486;2024-01-06T16:10:30;2.40;99.90
38458;DHT22;24239;48.058;10.486;2024-01-06T16:13:23;2.40;99.90
38458;DHT22;24239;48.058;10.486;2024-01-06T16:16:09;2.30;99.90
38458;DHT22;24239;48.058;10.486;2024-01-06T16:18:58;2.40;99.90
38458;DHT22;24239;48.058;10.486;2024-01-06T16:21:57;2.40;99.90
38458;DHT22;24239;48.058;10.486;2024-01-06T16:24:51;2.30;99.90
38458;DHT22;24239;48.058;10.486;2024-01-06T16:27:57;2.40;99.90
38458;DHT22;24239;48.058;10.486;2024-01-06T16:30:43;2.30;99.90
38458;DHT22;24239;48.058;10.486;2024-01-06T16:33:29;2.30;99.90
38458;DHT22;24239;48.058;10.486;2024-01-06T16:36:16;2.50;99.90
38458;DHT22;24239;48.058;10.486;2024-01-06T16:39:07;2.40;99.90
38458;DHT22;24239;48.058;10.486;2024-01-06T16:41:56;2.40;99.90
38458;DHT22;24239;48.058;10.486;2024-01-06T16:44:42;2.40;99.90
38458;DHT22;24239;48.058;10.486;2024-01-06T16:47:32;2.40;99.90
38458;DHT22;24239;48.058;10.486;2024-01-06T16:50:18;2.40;99.90
38458;DHT22;24239;48.058;10.486;2024-01-06T16:53:04;2.30;99.90
38458;DHT22;24239;48.058;10.486;2024-01-06T16:55:50;2.30;99.90
38458;DHT22;24239;48.058;10.486;2024-01-06T16:58:36;2.20;99.90
38458;DHT22;24239;48.058;10.486;2024-01-06T17:01:27;2.20;99.90
38458;DHT22;24239;48.058;10.486;2024-01-06T17:04:23;2.20;99.90
38458;DHT22;24239;48.058;10.486;2024-01-06T17:07:09;2.00;99.90
38458;DHT22;24239;48.058;10.486;2024-01-06T17:09:58;2.20;99.90
38458;DHT22;24239;48.058;10.486;2024-01-06T17:12:51;2.10;99.90
38458;DHT22;24239;48.058;10.486;2024-01-06T17:15:37;2.10;99.90
38458;DHT22;24239;48.058;10.486;2024-01-06T17:18:23;2.20;99.90
38458;DHT22;24239;48.058;10.486;2024-01-06T17:21:09;2.20;99.90
38458;DHT22;24239;48.058;10.486;2024-01-06T17:24:00;2.00;99.90
38458;DHT22;24239;48.058;10.486;2024-01-06T17:26:46;2.10;99.90
38458;DHT22;24239;48.058;10.486;2024-01-06T17:29:32;2.10;99.90
38458;DHT22;24239;48.058;10.486;2024-01-06T17:32:35;2.10;99.90
38458;DHT22;24239;48.058;10.486;2024-01-06T17:35:21;2.10;99.90
38458;DHT22;24239;48.058;10.486;2024-01-06T17:38:07;2.00;99.90
38458;DHT22;24239;48.058;10.486;2024-01-06T17:40:53;2.10;99.90
38458;DHT22;24239;48.058;10.486;2024-01-06T17:43:39;2.10;99.90
38458;DHT22;24239;48.058;10.486;2024-01-06T17:46:25;2.10;99.90
38458;DHT22;24239;48.058;10.486;2024-01-06T17:49:14;2.00;99.90
38458;DHT22;24239;48.058;10.486;2024-01-06T17:52:00;2.10;99.90
38458;DHT22;24239;48.058;10.486;2024-01-06T17:54:46;2.20;99.90
38458;DHT22;24239;48.058;10.486;2024-01-06T17:57:35;2.10;99.90
38458;DHT22;24239;48.058;10.486;2024-01-06T18:00:21;2.00;99.90
38458;DHT22;24239;48.058;10.486;2024-01-06T18:03:07;2.00;99.90
38458;DHT22;24239;48.058;10.486;2024-01-06T18:05:56;2.00;99.90
38458;DHT22;24239;48.058;10.486;2024-01-06T18:08:42;1.80;99.90
38458;DHT22;24239;48.058;10.486;2024-01-06T18:11:30;1.90;99.90
38458;DHT22;24239;48.058;10.486;2024-01-06T18:14:19;1.80;99.90
38458;DHT22;24239;48.058;10.486;2024-01-06T18:17:05;1.80;99.90
38458;DHT22;24239;48.058;10.486;2024-01-06T18:20:02;1.80;99.90
38458;DHT22;24239;48.058;10.486;2024-01-06T18:22:53;1.90;99.90
38458;DHT22;24239;48.058;10.486;2024-01-06T18:25:50;1.80;99.90